createdAt,value
2023-05-22T00:01:09.693Z,12.76
2023-05-22T00:03:37.400Z,12.71
2023-05-22T00:06:06.404Z,12.43
2023-05-22T00:08:33.753Z,12.16
2023-05-22T00:11:01.703Z,12.22
2023-05-22T00:13:29.086Z,12.26
2023-05-22T00:15:56.810Z,12.39
2023-05-22T00:18:25.713Z,12.37
2023-05-22T00:20:53.746Z,12.36
2023-05-22T00:23:22.095Z,12.51
2023-05-22T00:25:50.943Z,12.23
2023-05-22T00:28:18.296Z,12.38
2023-05-22T00:30:46.102Z,12.52
2023-05-22T00:33:13.750Z,12.53
2023-05-22T00:35:41.054Z,12.50
2023-05-22T00:38:09.312Z,12.38
2023-05-22T00:40:37.325Z,12.46
2023-05-22T00:43:08.811Z,12.51
2023-05-22T00:45:36.942Z,12.39
2023-05-22T00:48:04.600Z,12.41
2023-05-22T00:50:32.016Z,12.49
2023-05-22T00:53:01.596Z,12.73
2023-05-22T00:55:29.022Z,12.58
2023-05-22T00:57:57.667Z,12.51
2023-05-22T01:00:25.844Z,12.62
2023-05-22T01:02:53.289Z,12.31
2023-05-22T01:05:21.247Z,12.42
2023-05-22T01:07:49.027Z,12.68
2023-05-22T01:10:16.443Z,12.47
2023-05-22T01:13:06.965Z,12.31
2023-05-22T01:15:54.541Z,12.40
2023-05-22T01:18:45.407Z,12.53
2023-05-22T01:21:30.410Z,12.48
2023-05-22T01:24:12.284Z,12.49
2023-05-22T01:26:54.249Z,12.00
2023-05-22T01:29:43.400Z,12.07
2023-05-22T01:32:16.705Z,12.06
2023-05-22T01:34:46.335Z,12.04
2023-05-22T01:37:16.633Z,12.03
2023-05-22T01:39:45.590Z,12.06
2023-05-22T01:42:13.372Z,12.11
2023-05-22T01:44:41.663Z,12.25
2023-05-22T01:47:09.160Z,12.31
2023-05-22T01:49:37.036Z,12.24
2023-05-22T01:52:12.438Z,12.18
2023-05-22T01:54:45.600Z,12.16
2023-05-22T01:57:16.775Z,12.06
2023-05-22T01:59:50.929Z,11.96
2023-05-22T02:02:21.501Z,12.07
2023-05-22T02:05:05.022Z,12.11
2023-05-22T02:07:36.746Z,11.90
2023-05-22T02:10:07.431Z,11.76
2023-05-22T02:12:37.705Z,11.76
2023-05-22T02:15:07.213Z,11.83
2023-05-22T02:17:40.744Z,11.74
2023-05-22T02:20:17.054Z,11.82
2023-05-22T02:22:47.157Z,11.79
2023-05-22T02:25:17.267Z,11.71
2023-05-22T02:27:47.124Z,11.69
2023-05-22T02:30:15.458Z,11.89
2023-05-22T02:32:43.804Z,11.96
2023-05-22T02:35:11.642Z,11.84
2023-05-22T02:37:39.041Z,11.66
2023-05-22T02:40:08.155Z,11.63
2023-05-22T02:42:36.464Z,11.59
2023-05-22T02:45:04.315Z,11.51
2023-05-22T02:47:34.118Z,11.56
2023-05-22T02:50:02.011Z,11.58
2023-05-22T02:52:31.765Z,11.52
2023-05-22T02:55:18.026Z,11.48
2023-05-22T02:57:47.763Z,11.44
2023-05-22T03:00:15.429Z,11.44
2023-05-22T03:02:43.016Z,11.47
2023-05-22T03:05:11.024Z,11.48
2023-05-22T03:07:38.597Z,11.40
2023-05-22T03:10:07.063Z,11.44
2023-05-22T03:12:34.715Z,11.39
2023-05-22T03:15:02.604Z,11.26
2023-05-22T03:17:31.459Z,11.36
2023-05-22T03:19:59.236Z,11.25
2023-05-22T03:22:26.878Z,11.13
2023-05-22T03:24:54.352Z,11.24
2023-05-22T03:27:22.106Z,11.17
2023-05-22T03:29:49.740Z,11.06
2023-05-22T03:32:17.877Z,11.08
2023-05-22T03:34:47.922Z,11.17
2023-05-22T03:37:16.024Z,11.29
2023-05-22T03:39:43.520Z,11.22
2023-05-22T03:42:15.735Z,11.00
2023-05-22T03:44:43.118Z,10.99
2023-05-22T03:47:11.255Z,11.18
2023-05-22T03:49:38.633Z,11.18
2023-05-22T03:52:06.250Z,11.25
2023-05-22T03:54:34.203Z,11.22
2023-05-22T03:57:03.110Z,11.22
2023-05-22T03:59:30.525Z,11.33
2023-05-22T04:01:58.298Z,11.28
2023-05-22T04:04:27.080Z,11.44
2023-05-22T04:06:54.572Z,11.67
2023-05-22T04:09:21.908Z,11.56
2023-05-22T04:11:49.791Z,11.48
2023-05-22T04:14:17.179Z,11.48
2023-05-22T04:16:50.444Z,11.58
2023-05-22T04:19:22.352Z,11.48
2023-05-22T04:21:50.032Z,11.59
2023-05-22T04:24:27.911Z,11.82
2023-05-22T04:26:56.360Z,12.00
2023-05-22T04:29:38.090Z,12.06
2023-05-22T04:32:10.805Z,12.09
2023-05-22T04:35:02.494Z,12.24
2023-05-22T04:37:31.987Z,12.34
2023-05-22T04:40:05.954Z,12.13
2023-05-22T04:42:34.934Z,12.22
2023-05-22T04:45:04.161Z,12.38
2023-05-22T04:48:05.569Z,12.18
2023-05-22T04:50:47.114Z,12.30
2023-05-22T04:53:18.462Z,12.54
2023-05-22T04:55:51.375Z,12.69
2023-05-22T04:58:19.257Z,12.90
2023-05-22T05:00:47.644Z,13.01
2023-05-22T05:03:15.335Z,13.22
2023-05-22T05:05:42.845Z,13.38
2023-05-22T05:08:11.492Z,13.54
2023-05-22T05:10:39.712Z,13.44
2023-05-22T05:13:38.178Z,13.43
2023-05-22T05:16:06.823Z,13.37
2023-05-22T05:18:35.161Z,13.57
2023-05-22T05:21:02.793Z,13.66
2023-05-22T05:23:30.821Z,13.86
2023-05-22T05:25:58.419Z,13.82
2023-05-22T05:28:26.439Z,14.02
2023-05-22T05:30:54.840Z,14.07
2023-05-22T05:33:22.412Z,14.39
2023-05-22T05:35:52.827Z,14.28
2023-05-22T05:38:23.674Z,14.58
2023-05-22T05:40:53.854Z,14.73
2023-05-22T05:43:25.565Z,14.76
2023-05-22T05:46:00.478Z,15.01
2023-05-22T05:48:29.109Z,14.75
2023-05-22T05:50:57.430Z,15.00
2023-05-22T05:53:32.046Z,15.24
2023-05-22T05:56:00.523Z,15.38
2023-05-22T05:58:29.942Z,15.49
2023-05-22T06:00:57.610Z,15.07
2023-05-22T06:03:29.995Z,14.96
2023-05-22T06:06:00.777Z,15.27
2023-05-22T06:08:34.665Z,15.36
2023-05-22T06:11:04.861Z,15.50
2023-05-22T06:13:32.712Z,15.73
2023-05-22T06:16:03.536Z,15.87
2023-05-22T06:18:33.246Z,16.00
2023-05-22T06:21:01.182Z,15.97
2023-05-22T06:23:36.641Z,16.13
2023-05-22T06:26:05.495Z,16.12
2023-05-22T06:28:32.971Z,16.27
2023-05-22T06:31:02.068Z,16.26
2023-05-22T06:33:30.245Z,16.36
2023-05-22T06:35:58.825Z,16.47
2023-05-22T06:38:26.897Z,16.54
2023-05-22T06:40:54.944Z,16.64
2023-05-22T06:43:23.172Z,16.72
2023-05-22T06:45:51.317Z,16.87
2023-05-22T06:48:48.556Z,16.95
2023-05-22T06:51:28.981Z,17.01
2023-05-22T06:53:59.715Z,17.15
2023-05-22T06:56:29.178Z,17.36
2023-05-22T06:58:58.971Z,17.61
2023-05-22T07:01:27.192Z,17.55
2023-05-22T07:04:07.382Z,17.54
2023-05-22T07:06:41.908Z,17.75
2023-05-22T07:09:11.684Z,17.94
2023-05-22T07:11:40.214Z,18.25
2023-05-22T07:14:08.298Z,18.21
2023-05-22T07:16:38.987Z,18.32
2023-05-22T07:19:08.943Z,18.28
2023-05-22T07:21:36.714Z,18.03
2023-05-22T07:24:08.574Z,18.30
2023-05-22T07:26:37.270Z,18.20
2023-05-22T07:29:05.949Z,17.93
2023-05-22T07:31:34.558Z,18.02
2023-05-22T07:34:02.467Z,17.96
2023-05-22T07:36:32.825Z,18.08
2023-05-22T07:39:22.417Z,17.96
2023-05-22T07:41:57.897Z,17.99
2023-05-22T07:44:35.979Z,18.03
2023-05-22T07:47:08.001Z,17.87
2023-05-22T07:49:37.903Z,17.83
2023-05-22T07:52:06.141Z,17.70
2023-05-22T07:54:38.508Z,17.82
2023-05-22T07:57:09.388Z,18.09
2023-05-22T07:59:37.843Z,18.01
2023-05-22T08:02:06.267Z,17.94
2023-05-22T08:04:34.202Z,17.92
2023-05-22T08:07:01.842Z,18.10
2023-05-22T08:09:31.028Z,18.14
2023-05-22T08:12:00.231Z,18.29
2023-05-22T08:14:28.633Z,18.38
2023-05-22T08:16:57.230Z,18.58
2023-05-22T08:19:25.389Z,18.53
2023-05-22T08:21:58.297Z,18.46
2023-05-22T08:24:30.728Z,18.49
2023-05-22T08:26:58.912Z,18.45
2023-05-22T08:29:36.794Z,18.49
2023-05-22T08:32:05.222Z,18.36
2023-05-22T08:34:34.466Z,18.47
2023-05-22T08:37:01.866Z,18.55
2023-05-22T08:39:29.302Z,18.78
2023-05-22T08:41:57.519Z,18.99
2023-05-22T08:44:25.941Z,18.98
2023-05-22T08:46:56.764Z,19.17
2023-05-22T08:49:25.330Z,19.33
2023-05-22T08:52:13.117Z,19.16
2023-05-22T08:54:46.181Z,19.17
2023-05-22T08:57:13.794Z,19.25
2023-05-22T08:59:43.979Z,18.87
2023-05-22T09:02:16.929Z,19.10
2023-05-22T09:04:44.791Z,19.40
2023-05-22T09:07:12.192Z,19.48
2023-05-22T09:09:40.118Z,19.60
2023-05-22T09:12:09.920Z,19.55
2023-05-22T09:14:42.225Z,19.48
2023-05-22T09:17:12.107Z,19.42
2023-05-22T09:19:43.900Z,19.71
2023-05-22T09:22:19.747Z,19.54
2023-05-22T09:24:51.782Z,19.64
2023-05-22T09:27:23.667Z,19.72
2023-05-22T09:29:53.001Z,19.55
2023-05-22T09:32:21.204Z,19.46
2023-05-22T09:34:49.099Z,19.32
2023-05-22T09:37:17.607Z,19.41
2023-05-22T09:39:46.249Z,19.18
2023-05-22T09:42:17.738Z,19.16
2023-05-22T09:44:49.754Z,19.53
2023-05-22T09:47:17.662Z,19.41
2023-05-22T09:49:46.406Z,19.41
2023-05-22T09:52:13.904Z,19.33
2023-05-22T09:54:58.004Z,19.54
2023-05-22T09:57:28.951Z,19.56
2023-05-22T09:59:58.979Z,19.77
2023-05-22T10:02:41.327Z,19.94
2023-05-22T10:05:10.197Z,20.11
2023-05-22T10:07:46.252Z,20.24
2023-05-22T10:10:19.860Z,19.94
2023-05-22T10:13:01.286Z,20.36
2023-05-22T10:15:30.113Z,20.49
2023-05-22T10:17:59.570Z,20.42
2023-05-22T10:20:34.209Z,20.49
2023-05-22T10:23:04.292Z,20.42
2023-05-22T10:25:44.398Z,20.06
2023-05-22T10:28:30.146Z,19.83
2023-05-22T10:31:06.709Z,19.77
2023-05-22T10:33:45.295Z,19.96
2023-05-22T10:37:05.989Z,19.87
2023-05-22T10:40:08.079Z,19.54
2023-05-22T10:42:38.046Z,19.24
2023-05-22T10:45:09.523Z,19.39
2023-05-22T10:48:00.139Z,19.11
2023-05-22T10:50:30.871Z,19.15
2023-05-22T10:53:25.634Z,19.31
2023-05-22T10:55:55.309Z,19.04
2023-05-22T10:58:36.649Z,18.72
2023-05-22T11:01:17.841Z,18.79
2023-05-22T11:03:53.681Z,18.04
2023-05-22T11:06:45.769Z,17.56
2023-05-22T11:09:30.459Z,17.02
2023-05-22T11:12:18.329Z,16.25
2023-05-22T11:14:50.232Z,16.45
2023-05-22T11:17:26.226Z,16.63
2023-05-22T11:20:02.884Z,16.69
2023-05-22T11:22:41.256Z,16.74
2023-05-22T11:25:19.975Z,16.95
2023-05-22T11:27:48.632Z,16.90
2023-05-22T11:30:17.511Z,16.43
2023-05-22T11:32:51.708Z,16.72
2023-05-22T11:35:23.777Z,16.94
2023-05-22T11:37:52.814Z,16.98
2023-05-22T11:40:29.842Z,16.76
2023-05-22T11:43:07.692Z,16.99
2023-05-22T11:45:38.222Z,17.05
2023-05-22T11:48:05.976Z,17.30
2023-05-22T11:50:42.383Z,17.12
2023-05-22T11:53:11.203Z,16.85
2023-05-22T11:55:38.658Z,17.20
2023-05-22T11:58:06.327Z,17.59
2023-05-22T12:00:34.153Z,17.58
2023-05-22T12:03:02.115Z,17.64
2023-05-22T12:05:32.412Z,17.60
2023-05-22T12:08:00.138Z,17.88
2023-05-22T12:10:27.913Z,18.12
2023-05-22T12:12:55.440Z,17.97
2023-05-22T12:15:24.645Z,18.34
2023-05-22T12:17:55.976Z,18.42
2023-05-22T12:20:23.497Z,18.26
2023-05-22T12:22:50.946Z,18.16
2023-05-22T12:25:20.341Z,18.04
2023-05-22T12:27:47.975Z,17.98
2023-05-22T12:30:16.065Z,17.79
2023-05-22T12:32:49.276Z,17.91
2023-05-22T12:35:17.811Z,17.61
2023-05-22T12:37:50.571Z,17.15
2023-05-22T12:40:18.423Z,17.29
2023-05-22T12:42:46.349Z,17.59
2023-05-22T12:45:14.135Z,17.65
2023-05-22T12:47:41.604Z,17.52
2023-05-22T12:50:09.631Z,17.43
2023-05-22T12:52:37.061Z,17.84
2023-05-22T12:55:04.882Z,17.93
2023-05-22T12:57:32.574Z,18.12
2023-05-22T12:59:59.921Z,18.44
2023-05-22T13:02:27.592Z,18.58
2023-05-22T13:04:55.462Z,18.53
2023-05-22T13:07:22.937Z,19.14
2023-05-22T13:09:50.335Z,19.36
2023-05-22T13:12:19.503Z,19.57
2023-05-22T13:14:46.914Z,19.51
2023-05-22T13:17:14.342Z,19.91
2023-05-22T13:19:42.006Z,19.79
2023-05-22T13:22:09.484Z,19.90
2023-05-22T13:24:37.006Z,19.59
2023-05-22T13:27:04.855Z,19.79
2023-05-22T13:29:33.242Z,19.81
2023-05-22T13:32:01.634Z,19.57
2023-05-22T13:34:30.115Z,19.74
2023-05-22T13:36:57.678Z,19.98
2023-05-22T13:39:25.242Z,20.18
2023-05-22T13:41:53.608Z,20.43
2023-05-22T13:44:21.512Z,20.49
2023-05-22T13:46:49.346Z,20.93
2023-05-22T13:49:17.476Z,20.94
2023-05-22T13:51:44.956Z,20.87
2023-05-22T13:54:12.280Z,21.42
2023-05-22T13:56:40.015Z,21.00
2023-05-22T13:59:09.355Z,20.82
2023-05-22T14:01:37.033Z,21.21
2023-05-22T14:04:05.996Z,20.62
2023-05-22T14:06:33.395Z,20.99
2023-05-22T14:09:00.807Z,21.38
2023-05-22T14:11:28.653Z,21.59
2023-05-22T14:13:56.073Z,21.57
2023-05-22T14:16:23.519Z,21.69
2023-05-22T14:18:51.373Z,21.89
2023-05-22T14:21:21.522Z,21.35
2023-05-22T14:23:48.988Z,21.46
2023-05-22T14:26:16.784Z,21.51
2023-05-22T14:28:44.360Z,21.45
2023-05-22T14:31:11.811Z,20.85
2023-05-22T14:33:39.544Z,20.66
2023-05-22T14:36:07.119Z,20.45
2023-05-22T14:38:34.799Z,20.91
2023-05-22T14:41:05.214Z,21.32
2023-05-22T14:43:33.644Z,21.93
2023-05-22T14:46:01.253Z,22.49
2023-05-22T14:48:29.603Z,22.30
2023-05-22T14:50:56.954Z,22.10
2023-05-22T14:53:24.376Z,22.52
2023-05-22T14:55:52.095Z,22.73
2023-05-22T14:58:19.578Z,22.96
2023-05-22T15:00:47.484Z,22.57
2023-05-22T15:03:15.356Z,21.79
2023-05-22T15:05:42.768Z,20.98
2023-05-22T15:08:10.383Z,21.29
2023-05-22T15:10:38.097Z,20.85
2023-05-22T15:13:05.793Z,20.85
2023-05-22T15:15:33.486Z,20.36
2023-05-22T15:18:02.967Z,20.09
2023-05-22T15:20:31.379Z,19.77
2023-05-22T15:22:59.790Z,19.41
2023-05-22T15:25:30.492Z,19.07
2023-05-22T15:27:58.381Z,18.55
2023-05-22T15:30:25.873Z,18.38
2023-05-22T15:32:53.772Z,18.09
2023-05-22T15:35:21.222Z,17.90
2023-05-22T15:37:48.641Z,17.64
2023-05-22T15:40:16.475Z,17.39
2023-05-22T15:42:44.084Z,16.98
2023-05-22T15:45:11.579Z,16.76
2023-05-22T15:47:39.402Z,16.40
2023-05-22T15:50:07.249Z,16.35
2023-05-22T15:52:34.728Z,16.02
2023-05-22T15:55:02.548Z,16.10
2023-05-22T15:57:30.452Z,16.08
2023-05-22T15:59:57.873Z,16.17
2023-05-22T16:02:25.885Z,16.05
2023-05-22T16:04:54.479Z,16.16
2023-05-22T16:07:45.152Z,16.37
2023-05-22T16:10:23.362Z,16.35
2023-05-22T16:12:52.655Z,16.48
2023-05-22T16:15:20.580Z,16.50
2023-05-22T16:17:48.141Z,16.41
2023-05-22T16:20:15.727Z,16.46
2023-05-22T16:22:48.487Z,16.39
2023-05-22T16:25:17.040Z,16.36
2023-05-22T16:27:44.938Z,16.53
2023-05-22T16:30:17.142Z,16.34
2023-05-22T16:32:48.861Z,16.06
2023-05-22T16:35:16.632Z,16.25
2023-05-22T16:37:44.059Z,16.52
2023-05-22T16:40:12.232Z,16.15
2023-05-22T16:42:39.636Z,16.10
2023-05-22T16:45:07.809Z,16.14
2023-05-22T16:47:35.579Z,16.09
2023-05-22T16:50:03.310Z,15.78
2023-05-22T16:52:33.060Z,15.90
2023-05-22T16:55:01.493Z,15.68
2023-05-22T16:57:29.633Z,15.85
2023-05-22T16:59:57.965Z,15.84
2023-05-22T17:02:26.768Z,15.87
2023-05-22T17:04:54.725Z,15.53
2023-05-22T17:07:22.658Z,15.63
2023-05-22T17:09:51.412Z,15.62
2023-05-22T17:12:18.806Z,15.50
2023-05-22T17:14:46.873Z,15.51
2023-05-22T17:17:15.014Z,15.43
2023-05-22T17:19:42.723Z,15.40
2023-05-22T17:22:10.100Z,15.49
2023-05-22T17:24:38.054Z,15.30
2023-05-22T17:27:06.997Z,15.21
2023-05-22T17:29:34.972Z,15.25
2023-05-22T17:32:05.015Z,14.91
2023-05-22T17:34:33.891Z,14.95
2023-05-22T17:37:01.434Z,14.86
2023-05-22T17:39:30.147Z,14.60
2023-05-22T17:41:59.682Z,14.40
2023-05-22T17:44:28.206Z,14.49
2023-05-22T17:46:55.986Z,14.47
2023-05-22T17:49:23.572Z,14.48
2023-05-22T17:51:50.975Z,14.44
2023-05-22T17:54:18.967Z,14.49
2023-05-22T17:56:46.563Z,14.63
2023-05-22T17:59:14.103Z,14.56
2023-05-22T18:01:41.895Z,14.46
2023-05-22T18:04:11.471Z,14.20
2023-05-22T18:06:39.543Z,14.23
2023-05-22T18:09:08.226Z,14.06
2023-05-22T18:11:36.131Z,14.13
2023-05-22T18:14:03.893Z,13.30
2023-05-22T18:16:31.634Z,13.28
2023-05-22T18:18:59.672Z,13.68
2023-05-22T18:21:27.074Z,13.98
2023-05-22T18:23:55.915Z,13.69
2023-05-22T18:26:23.729Z,13.66
2023-05-22T18:28:51.337Z,13.68
2023-05-22T18:31:18.823Z,13.61
2023-05-22T18:33:46.844Z,13.52
2023-05-22T18:36:14.260Z,13.58
2023-05-22T18:38:41.819Z,13.61
2023-05-22T18:41:09.578Z,13.59
2023-05-22T18:43:36.945Z,13.56
2023-05-22T18:46:04.394Z,13.58
2023-05-22T18:48:33.335Z,13.56
2023-05-22T18:51:01.010Z,13.55
2023-05-22T18:53:28.511Z,13.70
2023-05-22T18:55:56.374Z,13.70
2023-05-22T18:58:23.906Z,14.03
2023-05-22T19:00:52.309Z,13.95
2023-05-22T19:03:20.109Z,14.13
2023-05-22T19:05:47.624Z,13.67
2023-05-22T19:08:14.962Z,13.49
2023-05-22T19:10:42.960Z,13.49
2023-05-22T19:13:10.557Z,13.67
2023-05-22T19:15:38.614Z,13.79
2023-05-22T19:18:06.477Z,13.87
2023-05-22T19:20:34.279Z,13.72
2023-05-22T19:23:01.900Z,13.81
2023-05-22T19:25:29.717Z,13.85
2023-05-22T19:27:57.117Z,13.76
2023-05-22T19:30:24.665Z,13.86
2023-05-22T19:32:56.054Z,13.88
2023-05-22T19:35:23.521Z,13.84
2023-05-22T19:37:50.998Z,13.82
2023-05-22T19:40:19.081Z,13.93
2023-05-22T19:42:46.725Z,13.86
2023-05-22T19:45:14.188Z,14.02
2023-05-22T19:47:42.009Z,13.92
2023-05-22T19:50:09.948Z,13.90
2023-05-22T19:52:37.384Z,13.93
2023-05-22T19:55:05.600Z,14.08
2023-05-22T19:57:33.073Z,14.17
2023-05-22T20:00:00.481Z,14.10
2023-05-22T20:02:28.504Z,14.11
2023-05-22T20:04:56.467Z,13.94
2023-05-22T20:07:23.959Z,14.00
2023-05-22T20:09:51.753Z,13.81
2023-05-22T20:12:19.511Z,13.77
2023-05-22T20:14:46.952Z,13.88
2023-05-22T20:17:14.553Z,13.96
2023-05-22T20:19:45.124Z,13.98
2023-05-22T20:22:12.585Z,13.90
2023-05-22T20:24:40.066Z,13.66
2023-05-22T20:27:07.803Z,13.62
2023-05-22T20:29:37.076Z,13.64
2023-05-22T20:32:04.777Z,13.49
2023-05-22T20:34:32.618Z,13.57
2023-05-22T20:37:00.257Z,13.63
2023-05-22T20:39:28.470Z,13.68
2023-05-22T20:41:56.351Z,13.64
2023-05-22T20:44:25.111Z,13.68
2023-05-22T20:46:53.578Z,13.58
2023-05-22T20:49:21.846Z,13.42
2023-05-22T20:51:54.588Z,13.45
2023-05-22T20:54:22.423Z,13.41
2023-05-22T20:56:50.367Z,13.18
2023-05-22T20:59:17.708Z,13.23
2023-05-22T21:01:45.491Z,13.40
2023-05-22T21:04:13.263Z,13.36
2023-05-22T21:06:40.835Z,13.49
2023-05-22T21:09:08.629Z,13.44
2023-05-22T21:11:36.142Z,13.48
2023-05-22T21:14:03.539Z,13.27
2023-05-22T21:16:31.291Z,13.32
2023-05-22T21:18:58.782Z,13.45
2023-05-22T21:21:26.196Z,13.58
2023-05-22T21:23:54.019Z,13.44
2023-05-22T21:26:23.204Z,13.46
2023-05-22T21:28:50.704Z,13.51
2023-05-22T21:31:18.498Z,13.46
2023-05-22T21:33:46.093Z,13.36
2023-05-22T21:36:13.477Z,13.32
2023-05-22T21:38:41.371Z,13.27
2023-05-22T21:41:08.777Z,13.50
2023-05-22T21:43:36.251Z,13.54
2023-05-22T21:46:04.107Z,13.48
2023-05-22T21:48:31.591Z,13.18
2023-05-22T21:50:59.114Z,13.11
2023-05-22T21:53:26.914Z,13.21
2023-05-22T21:55:54.269Z,13.35
2023-05-22T21:58:21.904Z,13.15
2023-05-22T22:00:49.687Z,13.19
2023-05-22T22:03:18.051Z,12.98
2023-05-22T22:05:45.615Z,13.05
2023-05-22T22:08:13.039Z,12.85
2023-05-22T22:10:41.102Z,12.95
2023-05-22T22:13:08.724Z,13.01
2023-05-22T22:15:36.865Z,12.97
2023-05-22T22:18:05.261Z,13.22
2023-05-22T22:20:43.576Z,13.14
2023-05-22T22:23:12.675Z,12.90
2023-05-22T22:25:40.032Z,12.71
2023-05-22T22:28:07.675Z,12.79
2023-05-22T22:30:35.666Z,12.73
2023-05-22T22:33:03.229Z,12.97
2023-05-22T22:35:30.938Z,13.00
2023-05-22T22:37:59.005Z,12.97
2023-05-22T22:40:27.033Z,12.69
2023-05-22T22:42:54.562Z,12.70
2023-05-22T22:45:22.275Z,12.67
2023-05-22T22:47:49.757Z,12.50
2023-05-22T22:50:17.392Z,12.66
2023-05-22T22:52:47.912Z,12.61
2023-05-22T22:55:15.867Z,12.59
2023-05-22T22:57:44.909Z,12.55
2023-05-22T23:00:13.659Z,12.61
2023-05-22T23:02:41.410Z,12.59
2023-05-22T23:05:09.384Z,12.56
2023-05-22T23:07:37.452Z,12.42
2023-05-22T23:10:05.229Z,12.27
2023-05-22T23:12:35.354Z,12.15
2023-05-22T23:15:03.938Z,11.94
2023-05-22T23:17:31.487Z,12.03
2023-05-22T23:19:58.895Z,11.78
2023-05-22T23:22:26.596Z,11.52
2023-05-22T23:24:54.014Z,11.78
2023-05-22T23:27:22.078Z,11.77
2023-05-22T23:29:49.763Z,11.90
2023-05-22T23:32:17.102Z,11.87
2023-05-22T23:34:44.366Z,11.82
2023-05-22T23:37:12.043Z,11.84
2023-05-22T23:39:39.437Z,11.67
2023-05-22T23:42:09.916Z,11.43
2023-05-22T23:44:37.667Z,11.49
2023-05-22T23:47:05.850Z,11.67
2023-05-22T23:49:33.347Z,11.56
2023-05-22T23:52:01.290Z,11.48
2023-05-22T23:54:28.902Z,11.54
2023-05-22T23:56:56.137Z,11.35
2023-05-22T23:59:23.826Z,11.51
